sensor_id;sensor_type;location;lat;lon;timestamp;P1;durP1;ratioP1;P2;durP2;ratioP2
42754;SDS011;28407;51.830;5.684;2023-04-30T00:01:20;5.55;;;4.45;;
42754;SDS011;28407;51.830;5.684;2023-04-30T00:03:21;5.00;;;4.45;;
42754;SDS011;28407;51.830;5.684;2023-04-30T00:05:23;5.47;;;4.78;;
42754;SDS011;28407;51.830;5.684;2023-04-30T00:07:24;4.82;;;4.00;;
42754;SDS011;28407;51.830;5.684;2023-04-30T00:09:24;8.73;;;4.60;;
42754;SDS011;28407;51.830;5.684;2023-04-30T00:11:25;6.18;;;4.75;;
42754;SDS011;28407;51.830;5.684;2023-04-30T00:13:26;6.07;;;4.55;;
42754;SDS011;28407;51.830;5.684;2023-04-30T00:15:26;5.88;;;4.57;;
42754;SDS011;28407;51.830;5.684;2023-04-30T00:17:27;6.78;;;4.63;;
42754;SDS011;28407;51.830;5.684;2023-04-30T00:19:27;5.28;;;4.25;;
42754;SDS011;28407;51.830;5.684;2023-04-30T00:21:28;5.90;;;4.90;;
42754;SDS011;28407;51.830;5.684;2023-04-30T00:23:28;4.68;;;4.13;;
42754;SDS011;28407;51.830;5.684;2023-04-30T00:25:29;7.22;;;4.70;;
42754;SDS011;28407;51.830;5.684;2023-04-30T00:27:30;5.32;;;4.65;;
42754;SDS011;28407;51.830;5.684;2023-04-30T00:29:31;7.30;;;5.40;;
42754;SDS011;28407;51.830;5.684;2023-04-30T00:31:31;5.82;;;4.75;;
42754;SDS011;28407;51.830;5.684;2023-04-30T00:33:32;5.32;;;4.38;;
42754;SDS011;28407;51.830;5.684;2023-04-30T00:35:32;6.00;;;5.00;;
42754;SDS011;28407;51.830;5.684;2023-04-30T00:37:33;6.25;;;4.43;;
42754;SDS011;28407;51.830;5.684;2023-04-30T00:39:33;6.97;;;4.60;;
42754;SDS011;28407;51.830;5.684;2023-04-30T00:41:34;5.35;;;4.53;;
42754;SDS011;28407;51.830;5.684;2023-04-30T00:43:35;5.50;;;4.53;;
42754;SDS011;28407;51.830;5.684;2023-04-30T00:45:36;8.50;;;5.15;;
42754;SDS011;28407;51.830;5.684;2023-04-30T00:47:36;5.45;;;4.45;;
42754;SDS011;28407;51.830;5.684;2023-04-30T00:49:37;5.38;;;4.32;;
42754;SDS011;28407;51.830;5.684;2023-04-30T00:51:37;4.78;;;4.10;;
42754;SDS011;28407;51.830;5.684;2023-04-30T00:53:41;7.40;;;4.57;;
42754;SDS011;28407;51.830;5.684;2023-04-30T00:55:43;6.25;;;4.75;;
42754;SDS011;28407;51.830;5.684;2023-04-30T00:57:43;5.13;;;4.05;;
42754;SDS011;28407;51.830;5.684;2023-04-30T00:59:44;5.70;;;4.65;;
42754;SDS011;28407;51.830;5.684;2023-04-30T01:01:45;5.68;;;4.47;;
42754;SDS011;28407;51.830;5.684;2023-04-30T01:03:46;5.28;;;4.43;;
42754;SDS011;28407;51.830;5.684;2023-04-30T01:05:47;5.57;;;5.05;;
42754;SDS011;28407;51.830;5.684;2023-04-30T01:07:47;4.97;;;4.25;;
42754;SDS011;28407;51.830;5.684;2023-04-30T01:09:49;5.55;;;4.65;;
42754;SDS011;28407;51.830;5.684;2023-04-30T01:11:55;5.57;;;4.60;;
42754;SDS011;28407;51.830;5.684;2023-04-30T01:14:50;5.63;;;4.60;;
42754;SDS011;28407;51.830;5.684;2023-04-30T01:17:13;6.70;;;4.65;;
42754;SDS011;28407;51.830;5.684;2023-04-30T01:19:31;5.60;;;4.53;;
42754;SDS011;28407;51.830;5.684;2023-04-30T01:21:44;5.05;;;4.13;;
42754;SDS011;28407;51.830;5.684;2023-04-30T01:24:23;6.28;;;4.25;;
42754;SDS011;28407;51.830;5.684;2023-04-30T01:28:38;5.22;;;4.22;;
42754;SDS011;28407;51.830;5.684;2023-04-30T01:30:42;4.40;;;3.97;;
42754;SDS011;28407;51.830;5.684;2023-04-30T01:32:45;5.00;;;4.13;;
42754;SDS011;28407;51.830;5.684;2023-04-30T01:34:46;5.32;;;4.25;;
42754;SDS011;28407;51.830;5.684;2023-04-30T01:39:08;4.70;;;3.95;;
42754;SDS011;28407;51.830;5.684;2023-04-30T01:43:54;4.93;;;4.10;;
42754;SDS011;28407;51.830;5.684;2023-04-30T01:46:05;5.55;;;4.07;;
42754;SDS011;28407;51.830;5.684;2023-04-30T01:48:42;4.70;;;3.95;;
42754;SDS011;28407;51.830;5.684;2023-04-30T01:51:01;7.55;;;5.18;;
42754;SDS011;28407;51.830;5.684;2023-04-30T01:53:29;4.60;;;4.07;;
42754;SDS011;28407;51.830;5.684;2023-04-30T01:55:39;5.63;;;3.80;;
42754;SDS011;28407;51.830;5.684;2023-04-30T01:57:44;6.15;;;4.72;;
42754;SDS011;28407;51.830;5.684;2023-04-30T01:59:56;5.57;;;4.03;;
42754;SDS011;28407;51.830;5.684;2023-04-30T02:01:57;6.05;;;4.72;;
42754;SDS011;28407;51.830;5.684;2023-04-30T02:03:58;4.78;;;4.13;;
42754;SDS011;28407;51.830;5.684;2023-04-30T02:06:00;7.57;;;5.50;;
42754;SDS011;28407;51.830;5.684;2023-04-30T02:08:01;4.65;;;4.07;;
42754;SDS011;28407;51.830;5.684;2023-04-30T02:10:02;5.95;;;4.47;;
42754;SDS011;28407;51.830;5.684;2023-04-30T02:12:04;4.97;;;4.32;;
42754;SDS011;28407;51.830;5.684;2023-04-30T02:14:05;6.70;;;4.30;;
42754;SDS011;28407;51.830;5.684;2023-04-30T02:16:06;4.35;;;3.80;;
42754;SDS011;28407;51.830;5.684;2023-04-30T02:18:07;5.20;;;4.32;;
42754;SDS011;28407;51.830;5.684;2023-04-30T02:20:08;6.15;;;5.38;;
42754;SDS011;28407;51.830;5.684;2023-04-30T02:22:09;4.68;;;4.25;;
42754;SDS011;28407;51.830;5.684;2023-04-30T02:24:09;4.95;;;4.45;;
42754;SDS011;28407;51.830;5.684;2023-04-30T02:26:10;5.65;;;4.63;;
42754;SDS011;28407;51.830;5.684;2023-04-30T02:28:11;5.22;;;4.53;;
42754;SDS011;28407;51.830;5.684;2023-04-30T02:30:11;8.23;;;5.15;;
42754;SDS011;28407;51.830;5.684;2023-04-30T02:32:13;6.72;;;4.95;;
42754;SDS011;28407;51.830;5.684;2023-04-30T02:34:14;5.07;;;4.20;;
42754;SDS011;28407;51.830;5.684;2023-04-30T02:36:14;5.82;;;4.88;;
42754;SDS011;28407;51.830;5.684;2023-04-30T02:38:15;5.28;;;4.38;;
42754;SDS011;28407;51.830;5.684;2023-04-30T02:40:15;6.53;;;4.55;;
42754;SDS011;28407;51.830;5.684;2023-04-30T02:42:16;4.97;;;4.30;;
42754;SDS011;28407;51.830;5.684;2023-04-30T02:44:17;5.28;;;4.40;;
42754;SDS011;28407;51.830;5.684;2023-04-30T02:46:17;6.13;;;4.85;;
42754;SDS011;28407;51.830;5.684;2023-04-30T02:48:18;5.65;;;4.63;;
42754;SDS011;28407;51.830;5.684;2023-04-30T02:50:19;5.95;;;4.70;;
42754;SDS011;28407;51.830;5.684;2023-04-30T02:52:19;7.75;;;5.10;;
42754;SDS011;28407;51.830;5.684;2023-04-30T02:54:20;7.07;;;5.60;;
42754;SDS011;28407;51.830;5.684;2023-04-30T02:56:22;5.43;;;4.93;;
42754;SDS011;28407;51.830;5.684;2023-04-30T02:58:23;6.07;;;4.72;;
42754;SDS011;28407;51.830;5.684;2023-04-30T03:00:23;5.07;;;4.30;;
42754;SDS011;28407;51.830;5.684;2023-04-30T03:02:24;5.72;;;5.10;;
42754;SDS011;28407;51.830;5.684;2023-04-30T03:04:24;7.18;;;6.35;;
42754;SDS011;28407;51.830;5.684;2023-04-30T03:06:25;5.38;;;4.80;;
42754;SDS011;28407;51.830;5.684;2023-04-30T03:08:26;5.78;;;4.63;;
42754;SDS011;28407;51.830;5.684;2023-04-30T03:10:26;6.60;;;5.00;;
42754;SDS011;28407;51.830;5.684;2023-04-30T03:12:27;6.10;;;4.47;;
42754;SDS011;28407;51.830;5.684;2023-04-30T03:14:28;5.75;;;4.97;;
42754;SDS011;28407;51.830;5.684;2023-04-30T03:16:29;5.35;;;4.78;;
42754;SDS011;28407;51.830;5.684;2023-04-30T03:18:30;4.45;;;4.03;;
42754;SDS011;28407;51.830;5.684;2023-04-30T03:20:30;5.53;;;4.47;;
42754;SDS011;28407;51.830;5.684;2023-04-30T03:22:31;5.88;;;4.65;;
42754;SDS011;28407;51.830;5.684;2023-04-30T03:24:31;5.47;;;4.57;;
42754;SDS011;28407;51.830;5.684;2023-04-30T03:26:32;6.00;;;5.00;;
42754;SDS011;28407;51.830;5.684;2023-04-30T03:28:33;5.45;;;4.95;;
42754;SDS011;28407;51.830;5.684;2023-04-30T03:30:34;5.53;;;4.65;;
42754;SDS011;28407;51.830;5.684;2023-04-30T03:32:35;5.65;;;5.05;;
42754;SDS011;28407;51.830;5.684;2023-04-30T03:34:35;8.50;;;4.65;;
42754;SDS011;28407;51.830;5.684;2023-04-30T03:36:37;5.53;;;4.97;;
42754;SDS011;28407;51.830;5.684;2023-04-30T03:38:37;5.93;;;5.32;;
42754;SDS011;28407;51.830;5.684;2023-04-30T03:40:39;5.65;;;4.88;;
42754;SDS011;28407;51.830;5.684;2023-04-30T03:42:40;10.82;;;5.18;;
42754;SDS011;28407;51.830;5.684;2023-04-30T03:44:40;5.13;;;4.63;;
42754;SDS011;28407;51.830;5.684;2023-04-30T03:46:41;6.13;;;4.75;;
42754;SDS011;28407;51.830;5.684;2023-04-30T03:48:42;5.03;;;4.53;;
42754;SDS011;28407;51.830;5.684;2023-04-30T03:50:43;5.18;;;4.50;;
42754;SDS011;28407;51.830;5.684;2023-04-30T03:54:47;5.97;;;4.90;;
42754;SDS011;28407;51.830;5.684;2023-04-30T03:56:48;6.93;;;4.97;;
42754;SDS011;28407;51.830;5.684;2023-04-30T03:58:49;6.95;;;4.90;;
42754;SDS011;28407;51.830;5.684;2023-04-30T04:00:50;5.78;;;5.10;;
42754;SDS011;28407;51.830;5.684;2023-04-30T04:02:51;5.93;;;5.07;;
42754;SDS011;28407;51.830;5.684;2023-04-30T04:04:52;5.57;;;4.40;;
42754;SDS011;28407;51.830;5.684;2023-04-30T04:06:52;5.25;;;4.65;;
42754;SDS011;28407;51.830;5.684;2023-04-30T04:08:53;5.57;;;4.63;;
42754;SDS011;28407;51.830;5.684;2023-04-30T04:12:56;4.90;;;4.40;;
42754;SDS011;28407;51.830;5.684;2023-04-30T04:14:57;5.18;;;4.63;;
42754;SDS011;28407;51.830;5.684;2023-04-30T04:16:58;5.25;;;4.72;;
42754;SDS011;28407;51.830;5.684;2023-04-30T04:19:00;5.32;;;4.55;;
42754;SDS011;28407;51.830;5.684;2023-04-30T04:21:01;5.70;;;4.82;;
42754;SDS011;28407;51.830;5.684;2023-04-30T04:23:03;5.57;;;4.47;;
42754;SDS011;28407;51.830;5.684;2023-04-30T04:25:03;6.40;;;4.82;;
42754;SDS011;28407;51.830;5.684;2023-04-30T04:27:06;5.68;;;4.47;;
42754;SDS011;28407;51.830;5.684;2023-04-30T04:29:07;6.10;;;4.47;;
42754;SDS011;28407;51.830;5.684;2023-04-30T04:31:08;5.43;;;4.30;;
42754;SDS011;28407;51.830;5.684;2023-04-30T04:33:10;6.68;;;5.05;;
42754;SDS011;28407;51.830;5.684;2023-04-30T04:35:12;5.40;;;4.82;;
42754;SDS011;28407;51.830;5.684;2023-04-30T04:37:14;5.43;;;4.85;;
42754;SDS011;28407;51.830;5.684;2023-04-30T04:41:17;5.68;;;4.75;;
42754;SDS011;28407;51.830;5.684;2023-04-30T04:43:17;5.32;;;4.45;;
42754;SDS011;28407;51.830;5.684;2023-04-30T04:45:19;5.53;;;4.93;;
42754;SDS011;28407;51.830;5.684;2023-04-30T04:47:21;5.30;;;4.75;;
42754;SDS011;28407;51.830;5.684;2023-04-30T04:49:21;6.25;;;4.63;;
42754;SDS011;28407;51.830;5.684;2023-04-30T04:51:22;7.32;;;6.05;;
42754;SDS011;28407;51.830;5.684;2023-04-30T04:53:24;6.03;;;5.43;;
42754;SDS011;28407;51.830;5.684;2023-04-30T04:55:24;5.28;;;4.70;;
42754;SDS011;28407;51.830;5.684;2023-04-30T04:57:25;5.45;;;4.95;;
42754;SDS011;28407;51.830;5.684;2023-04-30T04:59:26;5.07;;;4.57;;
42754;SDS011;28407;51.830;5.684;2023-04-30T05:01:28;6.95;;;6.18;;
42754;SDS011;28407;51.830;5.684;2023-04-30T05:03:30;6.03;;;5.43;;
42754;SDS011;28407;51.830;5.684;2023-04-30T05:05:31;5.32;;;4.65;;
42754;SDS011;28407;51.830;5.684;2023-04-30T05:07:32;5.75;;;4.70;;
42754;SDS011;28407;51.830;5.684;2023-04-30T05:09:34;5.97;;;5.22;;
42754;SDS011;28407;51.830;5.684;2023-04-30T05:11:34;6.85;;;5.22;;
42754;SDS011;28407;51.830;5.684;2023-04-30T05:13:35;5.18;;;4.40;;
42754;SDS011;28407;51.830;5.684;2023-04-30T05:15:36;6.18;;;4.72;;
42754;SDS011;28407;51.830;5.684;2023-04-30T05:17:37;5.68;;;5.00;;
42754;SDS011;28407;51.830;5.684;2023-04-30T05:19:37;4.75;;;4.30;;
42754;SDS011;28407;51.830;5.684;2023-04-30T05:21:38;5.50;;;5.00;;
42754;SDS011;28407;51.830;5.684;2023-04-30T05:23:39;6.05;;;5.25;;
42754;SDS011;28407;51.830;5.684;2023-04-30T05:25:39;6.65;;;4.70;;
42754;SDS011;28407;51.830;5.684;2023-04-30T05:27:40;6.10;;;4.97;;
42754;SDS011;28407;51.830;5.684;2023-04-30T05:29:41;6.90;;;5.57;;
42754;SDS011;28407;51.830;5.684;2023-04-30T05:31:41;5.88;;;5.25;;
42754;SDS011;28407;51.830;5.684;2023-04-30T05:33:42;5.30;;;4.70;;
42754;SDS011;28407;51.830;5.684;2023-04-30T05:35:43;6.38;;;5.47;;
42754;SDS011;28407;51.830;5.684;2023-04-30T05:37:44;6.10;;;5.50;;
42754;SDS011;28407;51.830;5.684;2023-04-30T05:39:45;6.75;;;5.18;;
42754;SDS011;28407;51.830;5.684;2023-04-30T05:41:45;6.32;;;5.10;;
42754;SDS011;28407;51.830;5.684;2023-04-30T05:43:46;5.75;;;5.15;;
42754;SDS011;28407;51.830;5.684;2023-04-30T05:45:47;6.63;;;4.70;;
42754;SDS011;28407;51.830;5.684;2023-04-30T05:47:47;5.95;;;5.15;;
42754;SDS011;28407;51.830;5.684;2023-04-30T05:49:48;6.38;;;5.70;;
42754;SDS011;28407;51.830;5.684;2023-04-30T05:51:49;5.80;;;5.15;;
42754;SDS011;28407;51.830;5.684;2023-04-30T05:53:49;5.50;;;5.00;;
42754;SDS011;28407;51.830;5.684;2023-04-30T05:55:50;6.50;;;5.40;;
42754;SDS011;28407;51.830;5.684;2023-04-30T05:57:51;5.63;;;5.10;;
42754;SDS011;28407;51.830;5.684;2023-04-30T05:59:51;7.35;;;4.80;;
42754;SDS011;28407;51.830;5.684;2023-04-30T06:01:53;5.53;;;4.95;;
42754;SDS011;28407;51.830;5.684;2023-04-30T06:03:54;6.25;;;4.82;;
42754;SDS011;28407;51.830;5.684;2023-04-30T06:05:54;6.40;;;5.03;;
42754;SDS011;28407;51.830;5.684;2023-04-30T06:07:55;6.93;;;5.57;;
42754;SDS011;28407;51.830;5.684;2023-04-30T06:09:55;5.97;;;5.22;;
42754;SDS011;28407;51.830;5.684;2023-04-30T06:11:56;5.03;;;4.47;;
42754;SDS011;28407;51.830;5.684;2023-04-30T06:13:57;5.50;;;4.97;;
42754;SDS011;28407;51.830;5.684;2023-04-30T06:15:57;6.70;;;5.45;;
42754;SDS011;28407;51.830;5.684;2023-04-30T06:17:58;6.47;;;4.75;;
42754;SDS011;28407;51.830;5.684;2023-04-30T06:19:59;5.53;;;5.00;;
42754;SDS011;28407;51.830;5.684;2023-04-30T06:22:01;6.07;;;4.90;;
42754;SDS011;28407;51.830;5.684;2023-04-30T06:24:02;6.18;;;4.57;;
42754;SDS011;28407;51.830;5.684;2023-04-30T06:26:03;4.75;;;4.30;;
42754;SDS011;28407;51.830;5.684;2023-04-30T06:28:03;5.28;;;4.78;;
42754;SDS011;28407;51.830;5.684;2023-04-30T06:30:05;5.33;;;4.83;;
42754;SDS011;28407;51.830;5.684;2023-04-30T06:32:06;5.27;;;4.73;;
42754;SDS011;28407;51.830;5.684;2023-04-30T06:34:06;4.60;;;4.20;;
42754;SDS011;28407;51.830;5.684;2023-04-30T06:36:07;6.07;;;4.95;;
42754;SDS011;28407;51.830;5.684;2023-04-30T06:38:08;5.75;;;5.15;;
42754;SDS011;28407;51.830;5.684;2023-04-30T06:40:08;5.82;;;5.22;;
42754;SDS011;28407;51.830;5.684;2023-04-30T06:42:09;7.37;;;4.57;;
42754;SDS011;28407;51.830;5.684;2023-04-30T06:44:10;6.07;;;4.95;;
42754;SDS011;28407;51.830;5.684;2023-04-30T06:46:12;6.22;;;4.97;;
42754;SDS011;28407;51.830;5.684;2023-04-30T06:48:14;7.63;;;4.55;;
42754;SDS011;28407;51.830;5.684;2023-04-30T06:50:14;5.68;;;5.05;;
42754;SDS011;28407;51.830;5.684;2023-04-30T06:52:15;6.88;;;4.88;;
42754;SDS011;28407;51.830;5.684;2023-04-30T06:54:15;4.35;;;3.95;;
42754;SDS011;28407;51.830;5.684;2023-04-30T06:56:16;5.60;;;4.15;;
42754;SDS011;28407;51.830;5.684;2023-04-30T06:58:17;4.25;;;3.85;;
42754;SDS011;28407;51.830;5.684;2023-04-30T07:00:18;4.22;;;3.83;;
42754;SDS011;28407;51.830;5.684;2023-04-30T07:02:19;4.50;;;4.10;;
42754;SDS011;28407;51.830;5.684;2023-04-30T07:04:20;7.78;;;4.53;;
42754;SDS011;28407;51.830;5.684;2023-04-30T07:06:20;4.20;;;3.78;;
42754;SDS011;28407;51.830;5.684;2023-04-30T07:08:21;4.90;;;4.32;;
42754;SDS011;28407;51.830;5.684;2023-04-30T07:10:22;4.38;;;3.97;;
42754;SDS011;28407;51.830;5.684;2023-04-30T07:12:22;4.60;;;3.50;;
42754;SDS011;28407;51.830;5.684;2023-04-30T07:14:24;6.20;;;4.20;;
42754;SDS011;28407;51.830;5.684;2023-04-30T07:16:24;5.57;;;4.22;;
42754;SDS011;28407;51.830;5.684;2023-04-30T07:20:27;4.20;;;3.78;;
42754;SDS011;28407;51.830;5.684;2023-04-30T07:22:27;5.22;;;4.32;;
42754;SDS011;28407;51.830;5.684;2023-04-30T07:24:28;7.80;;;5.05;;
42754;SDS011;28407;51.830;5.684;2023-04-30T07:26:30;6.30;;;4.63;;
42754;SDS011;28407;51.830;5.684;2023-04-30T07:28:30;5.38;;;4.28;;
42754;SDS011;28407;51.830;5.684;2023-04-30T07:30:31;6.30;;;4.15;;
42754;SDS011;28407;51.830;5.684;2023-04-30T07:32:33;5.05;;;4.55;;
42754;SDS011;28407;51.830;5.684;2023-04-30T07:36:35;5.43;;;4.53;;
42754;SDS011;28407;51.830;5.684;2023-04-30T07:38:37;6.13;;;4.65;;
42754;SDS011;28407;51.830;5.684;2023-04-30T07:40:38;5.70;;;4.60;;
42754;SDS011;28407;51.830;5.684;2023-04-30T07:42:39;5.20;;;3.88;;
42754;SDS011;28407;51.830;5.684;2023-04-30T07:44:43;6.03;;;4.75;;
42754;SDS011;28407;51.830;5.684;2023-04-30T07:46:43;5.47;;;4.68;;
42754;SDS011;28407;51.830;5.684;2023-04-30T07:48:44;4.80;;;4.13;;
42754;SDS011;28407;51.830;5.684;2023-04-30T07:50:48;5.20;;;4.70;;
42754;SDS011;28407;51.830;5.684;2023-04-30T07:52:48;5.32;;;4.65;;
42754;SDS011;28407;51.830;5.684;2023-04-30T07:54:49;4.95;;;4.45;;
42754;SDS011;28407;51.830;5.684;2023-04-30T07:56:50;7.63;;;4.80;;
42754;SDS011;28407;51.830;5.684;2023-04-30T07:58:50;5.43;;;4.50;;
42754;SDS011;28407;51.830;5.684;2023-04-30T08:00:51;5.10;;;4.47;;
42754;SDS011;28407;51.830;5.684;2023-04-30T08:02:52;5.22;;;4.72;;
42754;SDS011;28407;51.830;5.684;2023-04-30T08:04:52;5.20;;;4.40;;
42754;SDS011;28407;51.830;5.684;2023-04-30T08:06:53;7.40;;;6.10;;
42754;SDS011;28407;51.830;5.684;2023-04-30T08:08:53;6.18;;;4.68;;
42754;SDS011;28407;51.830;5.684;2023-04-30T08:10:54;6.82;;;4.50;;
42754;SDS011;28407;51.830;5.684;2023-04-30T08:12:55;5.97;;;4.72;;
42754;SDS011;28407;51.830;5.684;2023-04-30T08:15:02;8.00;;;5.00;;
42754;SDS011;28407;51.830;5.684;2023-04-30T08:17:04;6.65;;;5.05;;
42754;SDS011;28407;51.830;5.684;2023-04-30T08:19:05;6.68;;;5.10;;
42754;SDS011;28407;51.830;5.684;2023-04-30T08:21:05;5.88;;;5.00;;
42754;SDS011;28407;51.830;5.684;2023-04-30T08:23:06;5.88;;;5.28;;
42754;SDS011;28407;51.830;5.684;2023-04-30T08:25:08;5.40;;;4.80;;
42754;SDS011;28407;51.830;5.684;2023-04-30T08:27:11;5.78;;;4.60;;
42754;SDS011;28407;51.830;5.684;2023-04-30T08:29:11;6.75;;;5.13;;
42754;SDS011;28407;51.830;5.684;2023-04-30T08:31:12;6.82;;;5.22;;
42754;SDS011;28407;51.830;5.684;2023-04-30T08:33:12;5.00;;;4.50;;
42754;SDS011;28407;51.830;5.684;2023-04-30T08:35:13;5.40;;;4.50;;
42754;SDS011;28407;51.830;5.684;2023-04-30T08:37:15;5.82;;;4.53;;
42754;SDS011;28407;51.830;5.684;2023-04-30T08:39:16;5.38;;;4.70;;
42754;SDS011;28407;51.830;5.684;2023-04-30T08:41:17;7.07;;;4.95;;
42754;SDS011;28407;51.830;5.684;2023-04-30T08:43:24;5.45;;;4.95;;
42754;SDS011;28407;51.830;5.684;2023-04-30T08:45:25;4.68;;;3.88;;
42754;SDS011;28407;51.830;5.684;2023-04-30T08:47:26;5.38;;;4.88;;
42754;SDS011;28407;51.830;5.684;2023-04-30T08:49:27;5.13;;;4.47;;
42754;SDS011;28407;51.830;5.684;2023-04-30T08:51:32;5.25;;;4.75;;
42754;SDS011;28407;51.830;5.684;2023-04-30T08:53:34;5.78;;;4.57;;
42754;SDS011;28407;51.830;5.684;2023-04-30T08:55:38;5.50;;;5.00;;
42754;SDS011;28407;51.830;5.684;2023-04-30T08:57:39;4.97;;;4.35;;
42754;SDS011;28407;51.830;5.684;2023-04-30T08:59:39;5.97;;;5.00;;
42754;SDS011;28407;51.830;5.684;2023-04-30T09:01:40;5.53;;;4.88;;
42754;SDS011;28407;51.830;5.684;2023-04-30T09:03:41;5.38;;;4.53;;
42754;SDS011;28407;51.830;5.684;2023-04-30T09:05:41;7.63;;;6.13;;
42754;SDS011;28407;51.830;5.684;2023-04-30T09:07:42;6.32;;;5.28;;
42754;SDS011;28407;51.830;5.684;2023-04-30T09:09:44;5.88;;;4.85;;
42754;SDS011;28407;51.830;5.684;2023-04-30T09:11:44;5.63;;;5.03;;
42754;SDS011;28407;51.830;5.684;2023-04-30T09:13:45;9.63;;;5.00;;
42754;SDS011;28407;51.830;5.684;2023-04-30T09:15:49;4.88;;;4.28;;
42754;SDS011;28407;51.830;5.684;2023-04-30T09:18:04;5.88;;;4.45;;
42754;SDS011;28407;51.830;5.684;2023-04-30T09:20:18;5.22;;;3.80;;
42754;SDS011;28407;51.830;5.684;2023-04-30T09:22:22;5.53;;;4.75;;
42754;SDS011;28407;51.830;5.684;2023-04-30T09:24:23;4.60;;;4.20;;
42754;SDS011;28407;51.830;5.684;2023-04-30T09:26:30;4.85;;;4.13;;
42754;SDS011;28407;51.830;5.684;2023-04-30T09:28:35;5.32;;;4.50;;
42754;SDS011;28407;51.830;5.684;2023-04-30T09:30:36;5.43;;;4.20;;
42754;SDS011;28407;51.830;5.684;2023-04-30T09:32:44;5.20;;;4.10;;
42754;SDS011;28407;51.830;5.684;2023-04-30T09:34:55;4.82;;;4.38;;
42754;SDS011;28407;51.830;5.684;2023-04-30T09:36:56;5.22;;;4.72;;
42754;SDS011;28407;51.830;5.684;2023-04-30T09:39:06;4.87;;;4.10;;
42754;SDS011;28407;51.830;5.684;2023-04-30T09:43:23;6.00;;;4.30;;
42754;SDS011;28407;51.830;5.684;2023-04-30T09:45:24;6.25;;;4.40;;
42754;SDS011;28407;51.830;5.684;2023-04-30T09:47:28;5.22;;;4.05;;
42754;SDS011;28407;51.830;5.684;2023-04-30T09:49:30;5.60;;;4.38;;
42754;SDS011;28407;51.830;5.684;2023-04-30T09:51:31;4.85;;;3.85;;
42754;SDS011;28407;51.830;5.684;2023-04-30T09:53:32;5.03;;;3.65;;
42754;SDS011;28407;51.830;5.684;2023-04-30T09:55:36;5.22;;;4.07;;
42754;SDS011;28407;51.830;5.684;2023-04-30T09:57:38;4.93;;;4.43;;
42754;SDS011;28407;51.830;5.684;2023-04-30T09:59:41;5.38;;;4.13;;
42754;SDS011;28407;51.830;5.684;2023-04-30T10:01:43;5.07;;;4.05;;
42754;SDS011;28407;51.830;5.684;2023-04-30T10:03:45;4.60;;;3.67;;
42754;SDS011;28407;51.830;5.684;2023-04-30T10:07:47;5.22;;;3.70;;
42754;SDS011;28407;51.830;5.684;2023-04-30T10:11:50;4.30;;;3.30;;
42754;SDS011;28407;51.830;5.684;2023-04-30T10:13:54;4.65;;;3.65;;
42754;SDS011;28407;51.830;5.684;2023-04-30T10:16:03;5.57;;;3.97;;
42754;SDS011;28407;51.830;5.684;2023-04-30T10:18:10;5.88;;;4.00;;
42754;SDS011;28407;51.830;5.684;2023-04-30T10:20:20;4.80;;;4.20;;
42754;SDS011;28407;51.830;5.684;2023-04-30T10:22:22;4.63;;;3.83;;
42754;SDS011;28407;51.830;5.684;2023-04-30T10:24:23;5.43;;;3.13;;
42754;SDS011;28407;51.830;5.684;2023-04-30T10:26:24;5.18;;;3.63;;
42754;SDS011;28407;51.830;5.684;2023-04-30T10:28:25;3.90;;;3.33;;
42754;SDS011;28407;51.830;5.684;2023-04-30T10:30:26;4.28;;;3.55;;
42754;SDS011;28407;51.830;5.684;2023-04-30T10:32:33;4.47;;;3.17;;
42754;SDS011;28407;51.830;5.684;2023-04-30T10:34:53;3.88;;;3.08;;
42754;SDS011;28407;51.830;5.684;2023-04-30T10:37:08;3.58;;;2.80;;
42754;SDS011;28407;51.830;5.684;2023-04-30T10:39:25;4.07;;;3.22;;
42754;SDS011;28407;51.830;5.684;2023-04-30T10:41:27;3.85;;;3.03;;
42754;SDS011;28407;51.830;5.684;2023-04-30T10:43:28;3.92;;;2.95;;
42754;SDS011;28407;51.830;5.684;2023-04-30T10:45:36;3.40;;;2.65;;
42754;SDS011;28407;51.830;5.684;2023-04-30T10:47:40;3.67;;;3.00;;
42754;SDS011;28407;51.830;5.684;2023-04-30T10:49:45;3.53;;;3.22;;
42754;SDS011;28407;51.830;5.684;2023-04-30T10:51:49;3.67;;;3.33;;
42754;SDS011;28407;51.830;5.684;2023-04-30T10:53:54;4.20;;;2.75;;
42754;SDS011;28407;51.830;5.684;2023-04-30T10:56:04;4.53;;;3.15;;
42754;SDS011;28407;51.830;5.684;2023-04-30T10:58:21;4.38;;;3.22;;
42754;SDS011;28407;51.830;5.684;2023-04-30T11:00:27;4.32;;;2.70;;
42754;SDS011;28407;51.830;5.684;2023-04-30T11:02:37;4.68;;;3.20;;
42754;SDS011;28407;51.830;5.684;2023-04-30T11:09:12;4.90;;;2.75;;
42754;SDS011;28407;51.830;5.684;2023-04-30T11:11:17;3.75;;;2.53;;
42754;SDS011;28407;51.830;5.684;2023-04-30T11:13:20;4.10;;;2.42;;
42754;SDS011;28407;51.830;5.684;2023-04-30T11:15:23;3.25;;;2.55;;
42754;SDS011;28407;51.830;5.684;2023-04-30T11:17:25;3.00;;;2.17;;
42754;SDS011;28407;51.830;5.684;2023-04-30T11:19:26;2.67;;;2.25;;
42754;SDS011;28407;51.830;5.684;2023-04-30T11:21:30;3.10;;;2.42;;
42754;SDS011;28407;51.830;5.684;2023-04-30T11:23:32;4.10;;;2.38;;
42754;SDS011;28407;51.830;5.684;2023-04-30T11:25:43;4.18;;;2.70;;
42754;SDS011;28407;51.830;5.684;2023-04-30T11:27:45;4.28;;;2.70;;
42754;SDS011;28407;51.830;5.684;2023-04-30T11:29:46;4.05;;;2.28;;
42754;SDS011;28407;51.830;5.684;2023-04-30T11:31:46;3.70;;;2.80;;
42754;SDS011;28407;51.830;5.684;2023-04-30T11:33:47;3.70;;;3.05;;
42754;SDS011;28407;51.830;5.684;2023-04-30T11:35:48;2.38;;;2.10;;
42754;SDS011;28407;51.830;5.684;2023-04-30T11:37:53;2.58;;;1.75;;
42754;SDS011;28407;51.830;5.684;2023-04-30T11:39:56;4.97;;;2.30;;
42754;SDS011;28407;51.830;5.684;2023-04-30T11:42:00;3.03;;;2.63;;
42754;SDS011;28407;51.830;5.684;2023-04-30T11:44:02;2.80;;;2.00;;
42754;SDS011;28407;51.830;5.684;2023-04-30T11:46:09;2.75;;;2.17;;
42754;SDS011;28407;51.830;5.684;2023-04-30T11:48:12;3.53;;;2.38;;
42754;SDS011;28407;51.830;5.684;2023-04-30T11:50:14;4.35;;;3.00;;
42754;SDS011;28407;51.830;5.684;2023-04-30T11:52:19;2.92;;;2.50;;
42754;SDS011;28407;51.830;5.684;2023-04-30T11:54:20;3.30;;;2.90;;
42754;SDS011;28407;51.830;5.684;2023-04-30T11:56:21;2.67;;;2.33;;
42754;SDS011;28407;51.830;5.684;2023-04-30T11:58:25;3.00;;;2.20;;
42754;SDS011;28407;51.830;5.684;2023-04-30T12:00:28;3.33;;;2.20;;
42754;SDS011;28407;51.830;5.684;2023-04-30T12:02:30;4.60;;;3.20;;
42754;SDS011;28407;51.830;5.684;2023-04-30T12:04:30;4.22;;;2.40;;
42754;SDS011;28407;51.830;5.684;2023-04-30T12:06:31;2.75;;;2.30;;
42754;SDS011;28407;51.830;5.684;2023-04-30T12:08:32;5.18;;;2.85;;
42754;SDS011;28407;51.830;5.684;2023-04-30T12:10:33;2.38;;;1.90;;
42754;SDS011;28407;51.830;5.684;2023-04-30T12:12:35;2.85;;;2.50;;
42754;SDS011;28407;51.830;5.684;2023-04-30T12:14:36;2.28;;;2.05;;
42754;SDS011;28407;51.830;5.684;2023-04-30T12:18:49;3.83;;;2.28;;
42754;SDS011;28407;51.830;5.684;2023-04-30T12:20:50;3.40;;;1.85;;
42754;SDS011;28407;51.830;5.684;2023-04-30T12:22:51;2.40;;;1.85;;
42754;SDS011;28407;51.830;5.684;2023-04-30T12:24:53;3.05;;;2.20;;
42754;SDS011;28407;51.830;5.684;2023-04-30T12:26:55;4.65;;;2.45;;
42754;SDS011;28407;51.830;5.684;2023-04-30T12:29:01;2.55;;;1.67;;
42754;SDS011;28407;51.830;5.684;2023-04-30T12:31:03;2.22;;;1.65;;
42754;SDS011;28407;51.830;5.684;2023-04-30T12:33:05;2.78;;;2.20;;
42754;SDS011;28407;51.830;5.684;2023-04-30T12:35:15;4.13;;;2.15;;
42754;SDS011;28407;51.830;5.684;2023-04-30T12:37:17;5.00;;;2.88;;
42754;SDS011;28407;51.830;5.684;2023-04-30T12:39:20;2.90;;;2.20;;
42754;SDS011;28407;51.830;5.684;2023-04-30T12:41:20;2.72;;;2.00;;
42754;SDS011;28407;51.830;5.684;2023-04-30T12:43:21;2.60;;;2.00;;
42754;SDS011;28407;51.830;5.684;2023-04-30T12:47:44;2.88;;;2.00;;
42754;SDS011;28407;51.830;5.684;2023-04-30T12:49:45;2.95;;;1.98;;
42754;SDS011;28407;51.830;5.684;2023-04-30T12:51:45;2.25;;;1.83;;